Maratón La paternal 2019

A continuación podes ver los resultados de la carrera «Maratón La paternal 2019»

Podes utilizar los distintos filtros para visualizar, tanto clasificación por sexo , grupo o por categorías, para volver atrás podes ir a “ver todos”

También podés descargarte nuestra aplicación desde tu Smartphone, ir a la secciòn “Resultados”, Buscar el evento, y con tu número de dorsal descargar tu certificado de competencia !

Cualquier reclamo escribí a:

resultadoseventosrunners@gmail.com, envía tu nombre, apellido, número de dorsal, tiempo estimado y distancia.

Se responderán las inquietudes a partir del lunes 16 a las 13hs!

Posicion General Dorsal Nombre Apellido Sexo Grupo Categoria Tiempo
1 3 NIESTROJ ALAN MASCULINO 7KM MASC 25 A 29 00:22:22
2 9 ELIGUECHE JOSE MASCULINO 7KM MASC 25 A 29 00:22:47
3 18 MARCOS SENDON MASCULINO 7KM MASC 30 A 34 00:23:30
4 10 AUGUSTO DI BUONO MASCULINO 7KM MASC 35 A 39 00:24:25
5 234 SERPONE DANIEL MASCULINO 7KM MASC 30 A 34 00:24:25
6 249 FACUNDO NAHUEL VARELA MASCULINO 7KM MASC 30 A 34 00:24:27
7 194 NORAMBUENA SALVADOR MASCULINO 7KM MASC 30 A 34 00:24:29
8 139 PEREZ DAMIAM MASCULINO 7KM MASC 45 A 49 00:25:01
9 92 GONZALEZ MIGUEL ANGEL MASCULINO 7KM MASC 40 A 44 00:25:03
10 233 EROS LEDO MASCULINO 7KM MASC 20 A 24 00:25:13
11 191 FERNANDO HIGA MASCULINO 7KM MASC 30 A 34 00:25:15
12 241 GARCIA RAUL ALFREDO MASCULINO 7KM MASC 40 A 44 00:25:16
13 232 MARIANO BELLINI MASCULINO 7KM MASC 25 A 29 00:25:17
14 55 RODRIGO ARIEL CARUSO MASCULINO 7KM MASC 20 A 24 00:25:30
15 79 NICOLAS FREGENAL MASCULINO 7KM MASC 30 A 34 00:25:30
16 174 BAÑOS GONZALO MASCULINO 7KM MASC 30 A 34 00:25:35
17 14 JOAQUIN ESTEVEZ MASCULINO 7KM MASC 30 A 34 00:25:36
18 61 MARIANO DAMIAN EVANGELISTA MASCULINO 7KM MASC 35 A 39 00:25:45
19 104 VILELA GABRIEL MASCULINO 7KM MASC 45 A 49 00:25:50
20 199 HERNÁN MARIO GONZÁLEZ MASCULINO 7KM MASC 30 A 34 00:25:56
21 73 ALFREDO FLORENTIN HERRERA MASCULINO 7KM MASC 45 A 49 00:26:05
22 141 EMMANUEL SAVALIO MASCULINO 7KM MASC 25 A 29 00:26:06
23 82 ALEJANDRO ESTIGARRIBIA MASCULINO 7KM MASC 45 A 49 00:26:09
24 176 VIERA PARRA GUSTAVO0 MASCULINO 7KM MASC 45 A 49 00:26:10
25 13 SABRINA BAABOUR FEMENINO 7KM FEM 35 A 39 00:26:12
26 203 GIOSA ARMANDO MASCULINO 7KM MASC 40 A 44 00:26:17
27 60 MAURO ANDRES CICCODICOLA MASCULINO 7KM MASC 40 A 44 00:26:19
28 93 RODRIGO SEVERIO MASCULINO 7KM MASC 30 A 34 00:26:21
29 185 MORELLA DANIEL MASCULINO 7KM MASC 40 A 44 00:26:36
30 59 CHIACCHIARINI MAURO MASCULINO 7KM MASC 35 A 39 00:26:37
31 98 ROMERAL ALEJANDRO MASCULINO 7KM MASC 50 A 54 00:26:43
32 90 ROCA HERNAN MASCULINO 7KM MASC 50 A 54 00:26:51
33 213 MARIANO DANIEL CHOLAKIAN MASCULINO 7KM MASC 30 A 34 00:27:02
34 202 DIEGO LEANDRO SIMONINI MASCULINO 7KM MASC 40 A 44 00:27:15
35 250 LUMELSKY MARIANO MASCULINO 7KM MASC 35 A 39 00:27:19
36 89 DORMAN GUIDO MASCULINO 7KM MASC 30 A 34 00:27:20
37 11 ESTEBAN DANIEL ARIAS MASCULINO 7KM MASC 45 A 49 00:27:26
38 204 EDUARDO KUBA MASCULINO 7KM MASC 35 A 39 00:27:41
39 137 LAMONICA SILVIO MASCULINO 7KM MASC 50 A 54 00:27:49
40 108 CARLOS ANIBAL MEDINA MASCULINO 7KM MASC 45 A 49 00:28:03
41 220 DIEGO BARZAGHI MASCULINO 7KM MASC 45 A 49 00:28:08
42 200 HERNAN DANIEL VALLEJO MASCULINO MASC 35 A 39 00:28:09
43 190 MARTÍN NAVIA MASCULINO 7KM MASC 20 A 24 00:28:16
44 52 PERETTI FEDERICO MASCULINO 7KM MASC 35 A 39 00:28:28
45 95 DEBUS GABRIEL MASCULINO 7KM MASC 35 A 39 00:28:30
46 212 LORENA FALCO FEMENINO 7KM FEM 40 A 44 00:28:36
47 198 PABLO MARCELO GONZÁLEZ MASCULINO 7KM MASC 30 A 34 00:28:55
48 201 LUCIANO MATIAS MALM GREEN MASCULINO 7KM MASC 00 A 19 00:29:01
49 12 DANIEL EDUARDO MERCADO MASCULINO 7KM MASC 50 A 54 00:29:02
50 96 ELIAS SABAN MASCULINO 7KM MASC 55 A 59 00:29:06
51 153 PILIPEC VERONICA FEMENINO 7KM FEM 35 A 39 00:29:07
52 134 MATIAS ALBERTO ÁNGEL BURGOS MASCULINO 7KM MASC 30 A 34 00:29:11
53 118 MELE ERNESTO MASCULINO 7KM MASC 50 A 54 00:29:18
54 85 VANINA CANTAFIO FEMENINO 7KM FEM 40 A 44 00:29:20
55 106 MATIAS LIPARTITI MASCULINO 7KM MASC 30 A 34 00:29:30
56 78 CAROLA MANSON FEMENINO 7KM FEM 40 A 44 00:29:33
57 184 SANTIAGO FERREIRA MASCULINO 7KM MASC 45 A 49 00:29:35
58 8 RODOLFO CARBAJAL ANGULO MASCULINO 7KM MASC 40 A 44 00:29:52
59 23 ACEVEDO INAKI MASCULINO 7KM MASC 00 A 19 00:30:05
60 17 VARGAS RIOS YENCON ISRAEL MASCULINO 7KM MASC 25 A 29 00:30:06
61 172 URDAY GASTON MASCULINO 7KM MASC 35 A 39 00:30:30
62 97 JUAN CARLOS GOMEZ ESPINOLA MASCULINO 7KM MASC 45 A 49 00:30:31
63 30 VIZCARRA IGNACIO ARTURO MASCULINO 7KM MASC 00 A 19 00:30:42
64 227 JAVIER EDUARDO VARELA MASCULINO 7KM MASC 40 A 44 00:30:47
65 54 FLORENCIA CARUSO FEMENINO 7KM FEM 30 A 34 00:31:12
66 164 CRESPI CARLOS FABIAN MASCULINO 7KM MASC 50 A 54 00:31:15
67 57 ANDREA VERÓNICA MURUA FEMENINO 7KM FEM 40 A 44 00:31:16
68 170 HERBST CRISTINA FEMENINO 7KM FEM 30 A 34 00:31:17
69 231 BARBAROSSA GASTON MASCULINO 7KM MASC 40 A 44 00:31:22
70 154 SALVA GUADALUPE FEMENINO 7KM FEM 25 A 29 00:31:24
71 236 ROBLEDO ANTONIO SEBASTIAN MASCULINO 7KM MASC 00 A 19 00:31:30
72 39 ZAPIOLA CARLA FEMENINO 7KM FEM 45 A 49 00:31:34
73 151 NESMA PAUL MASCULINO 7KM MASC 50 A 54 00:31:38
74 83 DIEGO NAVARRO MASCULINO 7KM MASC 40 A 44 00:32:03
75 217 CLAUDIO CRISTIAN GONZALEZ MASCULINO 7KM MASC 55 A 59 00:32:04
76 133 DIEGO DOMINGUEZ MASCULINO 7KM MASC 40 A 44 00:32:07
77 215 PABLO MOLINA MASCULINO 7KM MASC 30 A 34 00:32:11
78 132 TERRAZAS NESTOR MASCULINO 7KM MASC 50 A 54 00:32:19
79 248 SANTIAGO BELIZAN MASCULINO 7KM MASC 25 A 29 00:32:21
80 109 DEYVIS BRANDOL VILLANUEVA BAILON MASCULINO 7KM MASC 20 A 24 00:32:23
81 91 ANA MARTINEZ FEMENINO 7KM FEM 45 A 49 00:32:26
82 157 CELESTINA DE LA CRUZ FEMENINO 7KM FEM 35 A 39 00:32:31
83 180 BALDO ARIEL MASCULINO 7KM MASC 35 A 39 00:32:33
84 226 GUIDO BELFIORE MASCULINO 7KM MASC 00 A 19 00:32:34
85 88 LOPEZ SEBASTIAN MASCULINO 7KM MASC 35 A 39 00:32:36
86 99 NATALIA ARRUFAT FEMENINO 7KM FEM 40 A 44 00:32:37
87 107 NOGUERA VIVIANA FEMENINO 7KM FEM 50 A 54 00:32:54
88 208 ALBERTO RAMIREZ MASCULINO 7KM MASC 50 A 54 00:32:56
89 182 ALANIS FERNANDO MASCULINO 7KM MASC 55 A 59 00:33:03
90 205 GABRIEL DI MODUGNO MASCULINO 7KM MASC 40 A 44 00:33:05
91 72 ALDAMA CESAR MASCULINO 7KM MASC 60 A 64 00:33:06
92 240 MUNOZ RONALD MASCULINO 7KM MASC 35 A 39 00:33:08
93 53 TAMARA KRIENKE FEMENINO 7KM FEM 30 A 34 00:33:09
94 101 MIGUEL VALLEJO MASCULINO 7KM MASC 35 A 39 00:33:23
95 81 MARÍA FLORENCIA AVENDAÑO FEMENINO 7KM FEM 35 A 39 00:33:27
96 221 DE LA MIYA JUAN MAUEL MASCULINO 7KM MASC 25 A 29 00:33:31
97 84 MARIANO GRANIERI MASCULINO 7KM MASC 40 A 44 00:33:40
98 189 CELESTE CORONEL FEMENINO 7KM FEM 25 A 29 00:33:51
99 167 LABORDA EZEQUIEL MASCULINO 7KM MASC 35 A 39 00:33:54
100 183 YAMILA ALANIZ FEMENINO 7KM FEM 25 A 29 00:34:03
101 166 GRAMAJO JOSE MASCULINO 7KM MASC 70 A 99 00:34:18
102 63 GIUFFRIDA DIEGO MASCULINO 7KM MASC 40 A 44 00:34:40
103 22 BIDINOSI FRANCISCO MASCULINO 7KM MASC 20 A 24 00:34:47
104 119 ROMERO SEBASTIAN MASCULINO 7KM MASC 35 A 39 00:34:50
105 162 ROBERTO ESTEBAN QUIROGA MASCULINO 7KM MASC 40 A 44 00:35:00
106 21 LOPEZ SANTIAGO MASCULINO 7KM MASC 25 A 29 00:35:02
107 86 POTENTE REGINA FEMENINO 7KM FEM 45 A 49 00:35:20
108 56 IGNACIO DI TOMA MUES MASCULINO 7KM MASC 60 A 64 00:35:24
109 6 DANIEL GIMÉNEZ MASCULINO 7KM MASC 50 A 54 00:35:38
110 244 DIEGO MARTÍN BONTEMPO MASCULINO 7KM MASC 40 A 44 00:35:38
111 173 SORAIROS ALEJANDRO MASCULINO 7KM MASC 50 A 54 00:35:47
112 219 MATIAS SPINELLI MASCULINO 7KM MASC 30 A 34 00:36:04
113 29 CIOCAN CINTIA FEMENINO 7KM FEM 45 A 49 00:36:22
114 37 VIZCARRA SOFIA FEMENINO 7KM FEM 00 A 19 00:36:23
115 25 FRANCESCHETTI DI VITA AGUSTIN MASCULINO 7KM MASC 00 A 19 00:36:24
116 129 HELLER ANDREA FEMENINO 7KM FEM 50 A 54 00:36:28
117 161 ELIZABETH BUNYAK FEMENINO 7KM FEM 20 A 24 00:36:36
118 116 LUCIO ARIAS MASCULINO 7KM MASC 25 A 29 00:36:45
119 19 JOSE MARIA SURRACO MASCULINO 7KM MASC 65 A 69 00:37:02
120 237 HUGO MARCOVICHIO MASCULINO 7KM MASC 70 A 99 00:37:08
121 177 NESSI VIOLETA FEMENINO 7KM FEM 35 A 39 00:37:09
122 218 DE LUCA MARTIN MASCULINO 7KM MASC 50 A 54 00:37:12
123 193 LEMCOFF GABRIEL MASCULINO 7KM MASC 50 A 54 00:37:15
124 230 LEONEL FIGUEROA MASCULINO 7KM MASC 20 A 24 00:37:29
125 112 DIANA CASSE FEMENINO 7KM FEM 50 A 54 00:37:30
126 178 LOFREDO MAURO MASCULINO 7KM MASC 40 A 44 00:37:32
127 64 VALENTINI RICARDO MASCULINO 7KM MASC 55 A 59 00:38:02
128 115 LIHUE RODRIGUEZ FEMENINO 7KM FEM 25 A 29 00:38:05
129 207 FEDERICO SULETA MASCULINO 7KM MASC 40 A 44 00:38:13
130 225 MARCOS OLIVERA MASCULINO 7KM MASC 35 A 39 00:38:14
131 4 DIEGO AMATO MASCULINO 7KM MASC 60 A 64 00:38:31
132 103 LOPEZ LUISINA FEMENINO 7KM FEM 20 A 24 00:38:33
133 188 GLEDO NILD MASCULINO 7KM MASC 65 A 69 00:38:35
134 110 JONATHAN PAREDES MASCULINO 7KM MASC 30 A 34 00:38:48
135 155 AGUSTI ALEJANDRO MASCULINO 7KM MASC 30 A 34 00:38:49
136 114 BONOFLIGLIO CARLOS ROBERTO MASCULINO 7KM MASC 45 A 49 00:38:52
137 7 KELLY MILAGROS CUBA NAVEDA FEMENINO 7KM FEM 40 A 44 00:39:06
138 87 ROMERO MIRTHA FEMENINO 7KM FEM 40 A 44 00:39:08
139 117 RUIZ EMILIANO MASCULINO 7KM MASC 45 A 49 00:39:12
140 77 FRANCO VELAZQUEZ ADELINA FEMENINO 7KM FEM 40 A 44 00:39:16
141 38 DELAFUENTE JOSE LUIS MASCULINO 7KM MASC 35 A 39 00:39:22
142 15 FEDERICA SIERRA FEMENINO 7KM FEM 00 A 19 00:39:24
143 209 ALCARAZ ISABEL FEMENINO 7KM FEM 50 A 54 00:39:25
144 70 HERNAN TORRES MASCULINO 7KM MASC 45 A 49 00:39:40
145 105 MARTINEZ NESTOR MASCULINO 7KM MASC 60 A 64 00:39:44
146 165 OSCAR ANTONIO CARBALLO MASCULINO 7KM MASC 50 A 54 00:39:45
147 125 ESTECHE ADRIAN MASCULINO 7KM MASC 00 A 19 00:39:54
148 58 HECTOR RAPPOPORT MASCULINO 7KM MASC 65 A 69 00:39:59
149 156 MARISA MARCELA MAGDALENA GARCIA FEMENINO 7KM FEM 60 A 64 00:40:03
150 71 RODOLFO BARRAGAN MASCULINO 7KM MASC 60 A 64 00:40:06
151 169 GONZALEZ LORENA FEMENINO 7KM FEM 40 A 44 00:40:13
152 24 LOPEZ LAURA FEMENINO 7KM FEM 30 A 34 00:40:24
153 51 CACACE RICARDO MASCULINO 7KM MASC 50 A 54 00:40:33
154 75 LOVEIRAS AMDRES MASCULINO 7KM MASC 60 A 64 00:40:34
155 159 JULIO LIBSFRAINT MASCULINO 7KM MASC 65 A 69 00:40:35
156 192 MARIO LUIS LAUFGANG MASCULINO 7KM MASC 65 A 69 00:40:54
157 26 LOPEZ VANESA0 FEMENINO 7KM FEM 35 A 39 00:40:56
158 31 BARRIENTOS VERONICA FEMENINO 7KM FEM 40 A 44 00:40:58
159 2 HERNAN GIMENEZ MASCULINO 7KM MASC 50 A 54 00:41:05
160 181 MAURO SANTORO MASCULINO 7KM MASC 40 A 44 00:41:07
161 138 MATIAS SCHVARZTEIN MASCULINO 7KM MASC 30 A 34 00:41:09
162 229 PAULA LILIANA SALTO FEMENINO 7KM FEM 50 A 54 00:41:12
163 27 SOTO FUENTE KARIM MASCULINO 7KM MASC 50 A 54 00:41:22
164 235 PAGE ROBERTO MASCULINO 7KM MASC 70 A 99 00:41:30
165 113 MARÍA CRISTINA MANJON FEMENINO 7KM FEM 60 A 64 00:41:35
166 160 KEVIN LIBSFRAINT MASCULINO 7KM MASC 25 A 29 00:41:36
167 216 EDGARDO ANIBAL PALAZZO MASCULINO 7KM MASC 70 A 99 00:41:44
168 245 PABLO MARTIN CASSI MASCULINO 7KM MASC 30 A 34 00:42:07
169 127 BOCCAFURNO GUSTAVO MASCULINO 7KM MASC 40 A 44 00:42:13
170 140 ANDY WILLY VILLANUEVA ROJAS MASCULINO 7KM MASC 25 A 29 00:42:15
171 136 UNZUE SERGIO MASCULINO 7KM MASC 50 A 54 00:42:17
172 246 JOAQUIN EZEQUIEL LOPES AFONSO MASCULINO 7KM MASC 40 A 44 00:42:19
173 238 ANALIA FLORENCIA ORTEGA FEMENINO 7KM FEM 35 A 39 00:42:22
174 102 DARÍO GABRIEL TESORIERO MASCULINO 7KM MASC 45 A 49 00:42:28
175 33 ASPITTA GRACIELA FEMENINO 7KM FEM 55 A 59 00:42:41
176 111 DANIEL RUB MASCULINO 7KM MASC 50 A 54 00:42:49
177 100 ELIZABETH FERNANDA GOMEZ FEMENINO 7KM FEM 40 A 44 00:43:02
178 40 CAPELETTI SOFIA FEMENINO 7KM FEM 30 A 34 00:43:04
179 40 CAPPELETTI SOFIA FEMENINO 7KM FEM 30 A 34 00:43:04
180 158 POLINSKI DAMIAN MASCULINO 7KM MASC 35 A 39 00:43:08
181 65 MARIANA BIANCO FEMENINO 7KM FEM 50 A 54 00:43:13
182 74 ANALICE MORENO FEMENINO 7KM FEM 30 A 34 00:43:15
183 247 PARDO JULIAN MASCULINO 7KM MASC 00 A 19 00:43:17
184 16 MARIA GABRIELA SIERRA FEMENINO 7KM FEM 35 A 39 00:43:26
185 214 MARCELO PASQUALI MASCULINO 7KM MASC 40 A 44 00:43:35
186 210 CARLOS GUTIERREZ MASCULINO 7KM MASC 45 A 49 00:43:39
187 68 MALARA MARIANA CLAUDIA FEMENINO 7KM FEM 45 A 49 00:43:42
188 69 MEZQUITA NOELIA EVELINA FEMENINO 7KM FEM 35 A 39 00:43:44
189 130 GOTIC MARIANA FEMENINO 7KM FEM 35 A 39 00:43:51
190 131 LIGUORI ARIEL MASCULINO 7KM MASC 30 A 34 00:43:52
191 62 SILVIA TROIAN FEMENINO 7KM FEM 45 A 49 00:43:56
192 32 JAURE GUIBERRI MONICA FEMENINO 7KM FEM 50 A 54 00:44:30
193 242 LUCÍA MARTÍNEZ CARREIRA FEMENINO 7KM FEM 40 A 44 00:44:33
194 168 TESONE ROBERTO MASCULINO 7KM MASC 55 A 59 00:44:44
195 94 MARIA FLORENCIA RIVAS FEMENINO 7KM FEM 35 A 39 00:44:48
196 66 CHANAMPA DIEGO MASCULINO 7KM MASC 00 A 19 00:45:00
197 67 NUNEZ DEBORAH NATALIA FEMENINO 7KM FEM 25 A 29 00:45:15
198 179 RECK JOIRGE MASCULINO 7KM MASC 70 A 99 00:46:54
199 135 RUIBAC DIEGO MASCULINO 7KM MASC 50 A 54 00:47:58
200 135 RUIBACK DIEGO MASCULINO 7KM MASC 50 A 54 00:47:58
201 171 MOYANO MARIA FEMENINO 7KM FEM 50 A 54 00:47:59
202 223 VANESA GERMADE FEMENINO 7KM FEM 40 A 44 00:48:28
203 222 ANDRES FELIPE MASCULINO 7KM MASC 55 A 59 00:48:29
204 224 MARIANO OSCAR GONZALEZ MASCULINO 7KM MASC 35 A 39 00:48:37
205 195 GABRIEL HAMRA MASCULINO 7KM MASC 55 A 59 00:48:47
206 163 ALFREDO JAVIER FADA MASCULINO 7KM MASC 50 A 54 00:48:51
207 243 ANA CLARA PERAZZO FEMENINO 7KM FEM 30 A 34 00:49:40
208 5 COLARACOVO CARLOS ARIEL MASCULINO 7KM MASC 45 A 49 00:50:42
209 206 VASQUEZ OSCAR MASCULINO 7KM MASC 70 A 99 00:51:02
210 76 SPINA GRACIELA INES FEMENINO 7KM FEM 55 A 59 00:51:07
211 239 ANA METZLER FEMENINO 7KM FEM 60 A 64 00:52:18
212 142 SHARPLES MARTIN MASCULINO 7KM MASC 50 A 54 01:02:11